PST,Max TemperatureF,Mean TemperatureF,Min TemperatureF,Max Dew PointF,MeanDew PointF,Min DewpointF,Max Humidity, Mean Humidity, Min Humidity, Max Sea Level PressureIn, Mean Sea Level PressureIn, Min Sea Level PressureIn, Max VisibilityMiles, Mean VisibilityMiles, Min VisibilityMiles, Max Wind SpeedMPH, Mean Wind SpeedMPH, Max Gust SpeedMPH,PrecipitationIn, CloudCover, Events, WindDirDegrees
2012-1-1,55,48,41,41,37,36,81,71,54,30.21,30.13,30.04,10,10,10,15,11,21,0.00,1,,86
2012-1-2,53,48,44,48,43,34,94,80,47,30.24,30.05,29.97,10,7,1,36,15,50,0.03,5,Rain,162
2012-1-3,53,50,48,50,46,41,100,84,62,30.34,30.30,30.27,10,8,2,21,11,29,0.07,3,Rain,170
2012-1-4,55,52,50,50,44,37,100,74,51,30.26,30.23,30.20,10,6,1,33,18,46,0.40,5,Rain,191
2012-1-5,50,42,35,46,41,36,100,88,62,30.50,30.44,30.36,10,4,2,14,7,22,0.00,3,,234
2012-1-6,44,38,32,39,36,32,100,91,76,30.38,30.35,30.33,10,7,1,9,4,,0.08,5,Rain,125
2012-1-7,50,46,41,45,42,39,100,95,82,30.48,30.43,30.37,10,9,4,9,4,,0.00,6,,86
2012-1-8,55,46,37,45,39,36,93,81,62,30.42,30.33,30.27,10,10,10,14,8,,0.00,0,,84
2012-1-9,50,44,37,46,40,36,100,89,76,30.35,30.30,30.25,10,7,0,14,4,18,0.00,5,Fog-Rain,47
2012-1-10,46,40,33,41,35,32,93,80,62,30.51,30.45,30.36,10,10,7,12,6,18,0.00,2,,37
2012-1-11,50,40,30,32,27,18,100,62,39,30.41,30.31,30.22,10,10,10,22,10,31,0.00,0,,68
2012-1-12,51,44,37,34,20,16,66,42,32,30.27,30.25,30.22,10,10,10,24,14,32,0.00,0,,72
2012-1-13,53,44,35,41,30,21,87,60,35,30.27,30.21,30.14,10,9,3,10,4,,0.00,0,,100
2012-1-14,46,40,35,43,38,30,100,84,65,30.18,30.15,30.09,10,7,1,20,13,31,0.03,7,Rain,240
2012-1-15,41,36,30,36,32,30,100,88,65,30.16,30.12,30.08,10,9,2,23,9,29,0.07,6,Rain-Snow,265
2012-1-16,41,34,28,36,33,28,100,95,76,30.27,30.23,30.17,10,8,2,18,5,24,0.22,6,Rain-Snow,191
2012-1-17,44,40,37,43,39,36,100,88,76,30.15,30.06,29.98,10,6,2,25,18,37,0.86,8,Rain,237
2012-1-18,50,46,42,48,45,41,100,97,87,29.95,29.76,29.64,5,2,1,50,34,70,2.98,8,Rain,194
2012-1-19,50,49,48,50,49,46,100,99,93,29.78,29.65,29.47,3,2,0,39,27,55,1.63,8,Fog-Rain,200
2012-1-20,53,50,48,52,49,46,100,94,82,29.80,29.51,29.17,10,5,1,38,18,59,0.54,8,Rain,178
2012-1-21,46,44,41,45,39,34,93,80,62,29.98,29.68,29.32,10,7,2,24,13,32,0.09,6,Rain,243
2012-1-22,50,44,35,46,39,34,100,83,66,29.93,29.72,29.55,10,7,1,38,13,54,0.30,7,Rain,183
2012-1-23,48,40,33,41,37,34,100,92,71,30.08,29.99,29.88,10,6,0,9,6,,0.00,2,Fog,86
2012-1-24,51,46,41,50,45,37,100,94,81,30.15,30.01,29.93,10,4,1,41,20,53,1.25,8,Rain,187
2012-1-25,51,50,48,50,48,46,100,94,87,30.42,30.32,30.21,10,2,0,17,12,24,0.02,7,Fog-Rain,194
2012-1-26,50,42,33,50,38,32,100,82,66,30.60,30.42,30.17,10,7,1,20,12,29,0.07,4,Rain,359
2012-1-27,46,38,30,36,33,30,100,83,57,30.63,30.55,30.49,10,9,1,16,8,23,0.00,0,,63
2012-1-28,59,47,35,45,34,30,93,73,44,30.50,30.41,30.31,10,10,4,13,7,,0.00,0,,82
2012-1-29,53,47,41,48,41,25,100,78,35,30.23,30.10,29.98,10,7,1,31,13,43,0.70,6,Rain,185
2012-1-30,50,46,41,45,43,41,100,89,76,30.18,30.15,30.12,10,6,2,9,5,,0.03,7,Rain,221
2012-1-31,50,46,42,43,41,37,93,83,71,30.14,30.06,29.94,10,9,4,10,5,,0.12,6,Rain,161